createdAt,value
2022-09-27T00:01:23.826Z,2.13
2022-09-27T00:03:55.122Z,2.10
2022-09-27T00:08:47.969Z,2.10
2022-09-27T00:11:33.447Z,2.30
2022-09-27T00:14:00.336Z,2.10
2022-09-27T00:16:29.813Z,1.45
2022-09-27T00:19:01.368Z,1.60
2022-09-27T00:21:29.978Z,1.00
2022-09-27T00:23:57.313Z,1.20
2022-09-27T00:26:23.686Z,1.00
2022-09-27T00:28:50.120Z,1.48
2022-09-27T00:31:29.715Z,1.25
2022-09-27T00:33:58.719Z,1.02
2022-09-27T00:36:26.715Z,0.70
2022-09-27T00:38:53.621Z,1.10
2022-09-27T00:41:32.284Z,1.08
2022-09-27T00:44:04.808Z,0.47
2022-09-27T00:46:42.559Z,0.98
2022-09-27T00:49:27.744Z,0.90
2022-09-27T00:51:58.293Z,0.50
2022-09-27T00:54:27.954Z,0.57
2022-09-27T00:56:56.310Z,0.60
2022-09-27T00:59:34.153Z,0.40
2022-09-27T01:02:01.630Z,0.38
2022-09-27T01:04:30.587Z,0.20
2022-09-27T01:06:57.010Z,0.30
2022-09-27T01:09:24.741Z,0.50
2022-09-27T01:12:36.236Z,0.47
2022-09-27T01:15:08.720Z,0.60
2022-09-27T01:17:59.411Z,0.30
2022-09-27T01:20:55.216Z,0.40
2022-09-27T01:23:54.107Z,0.85
2022-09-27T01:26:29.512Z,0.43
2022-09-27T01:29:05.377Z,0.45
2022-09-27T01:32:03.282Z,0.47
2022-09-27T01:34:53.398Z,0.95
2022-09-27T01:37:27.151Z,0.30
2022-09-27T01:40:10.334Z,0.20
2022-09-27T01:43:04.522Z,0.47
2022-09-27T01:45:37.802Z,0.10
2022-09-27T01:48:10.729Z,0.32
2022-09-27T01:50:42.297Z,0.52
2022-09-27T01:53:17.495Z,0.28
2022-09-27T01:55:47.502Z,0.40
2022-09-27T01:58:31.603Z,0.30
2022-09-27T02:01:00.640Z,0.32
2022-09-27T02:03:40.623Z,0.50
2022-09-27T02:06:18.948Z,0.40
2022-09-27T02:08:55.140Z,0.45
2022-09-27T02:11:22.282Z,0.40
2022-09-27T02:14:11.442Z,0.30
2022-09-27T02:16:59.961Z,0.57
2022-09-27T02:20:08.245Z,1.40
2022-09-27T02:23:05.604Z,0.40
2022-09-27T02:25:41.753Z,1.10
2022-09-27T02:28:33.517Z,0.90
2022-09-27T02:31:00.161Z,1.27
2022-09-27T02:33:31.605Z,1.80
2022-09-27T02:35:58.086Z,1.48
2022-09-27T02:38:24.629Z,1.90
2022-09-27T02:40:51.058Z,2.88
2022-09-27T02:43:20.233Z,2.05
2022-09-27T02:45:46.615Z,1.67
2022-09-27T02:48:15.706Z,1.60
2022-09-27T02:50:57.149Z,1.20
2022-09-27T02:53:41.893Z,1.63
2022-09-27T02:56:08.196Z,2.25
2022-09-27T02:58:34.497Z,2.55
2022-09-27T03:01:23.534Z,2.88
2022-09-27T03:04:08.841Z,3.25
2022-09-27T03:06:37.540Z,2.30
2022-09-27T03:09:03.961Z,1.30
2022-09-27T03:11:30.357Z,1.30
2022-09-27T03:14:08.360Z,0.93
2022-09-27T03:16:35.695Z,0.90
2022-09-27T03:19:02.118Z,1.00
2022-09-27T03:21:29.129Z,1.25
2022-09-27T03:23:55.483Z,0.73
2022-09-27T03:26:21.865Z,0.30
2022-09-27T03:28:48.341Z,0.68
2022-09-27T03:31:14.772Z,0.32
2022-09-27T03:33:41.210Z,0.70
2022-09-27T03:36:07.743Z,0.60
2022-09-27T03:38:34.115Z,0.40
2022-09-27T03:41:00.590Z,0.45
2022-09-27T03:43:27.041Z,0.40
2022-09-27T03:45:53.642Z,0.30
2022-09-27T03:48:22.379Z,0.60
2022-09-27T03:50:52.205Z,0.47
2022-09-27T03:53:18.572Z,0.93
2022-09-27T03:55:48.058Z,0.38
2022-09-27T03:58:14.923Z,0.70
2022-09-27T04:00:41.275Z,0.30
2022-09-27T04:03:07.668Z,0.40
2022-09-27T04:05:34.060Z,0.45
2022-09-27T04:08:00.730Z,0.63
2022-09-27T04:10:27.107Z,0.98
2022-09-27T04:12:53.869Z,1.02
2022-09-27T04:15:21.097Z,0.50
2022-09-27T04:17:47.446Z,1.05
2022-09-27T04:20:13.907Z,0.80
2022-09-27T04:22:41.934Z,0.70
2022-09-27T04:25:09.815Z,0.75
2022-09-27T04:27:36.783Z,0.20
2022-09-27T04:30:04.612Z,1.33
2022-09-27T04:32:31.033Z,0.95
2022-09-27T04:35:16.267Z,0.40
2022-09-27T04:37:44.977Z,0.40
2022-09-27T04:40:11.356Z,0.52
2022-09-27T04:42:37.981Z,0.38
2022-09-27T04:45:05.129Z,0.40
2022-09-27T04:47:31.894Z,0.93
2022-09-27T04:49:58.290Z,0.70
2022-09-27T04:52:24.720Z,0.70
2022-09-27T04:54:51.570Z,0.70
2022-09-27T04:57:18.207Z,0.90
2022-09-27T04:59:44.576Z,0.43
2022-09-27T05:02:10.994Z,0.68
2022-09-27T05:04:37.496Z,0.88
2022-09-27T05:07:04.049Z,0.57
2022-09-27T05:09:30.438Z,0.63
2022-09-27T05:11:56.951Z,0.90
2022-09-27T05:14:23.419Z,0.43
2022-09-27T05:16:49.894Z,0.60
2022-09-27T05:19:16.680Z,0.77
2022-09-27T05:21:43.651Z,0.60
2022-09-27T05:24:10.011Z,0.50
2022-09-27T05:26:37.395Z,0.95
2022-09-27T05:29:04.535Z,0.20
2022-09-27T05:31:30.927Z,0.73
2022-09-27T05:33:57.305Z,0.40
2022-09-27T05:36:23.765Z,0.40
2022-09-27T05:38:50.161Z,0.35
2022-09-27T05:41:17.049Z,0.30
2022-09-27T05:43:43.520Z,0.35
2022-09-27T05:46:09.933Z,0.40
2022-09-27T05:48:36.917Z,0.73
2022-09-27T05:51:03.675Z,0.22
2022-09-27T05:53:31.317Z,0.32
2022-09-27T05:56:01.431Z,0.63
2022-09-27T05:58:28.311Z,0.50
2022-09-27T06:00:54.701Z,0.50
2022-09-27T06:03:21.138Z,0.47
2022-09-27T06:05:51.225Z,0.20
2022-09-27T06:08:20.190Z,0.30
2022-09-27T06:10:47.276Z,0.63
2022-09-27T06:13:15.655Z,0.38
2022-09-27T06:15:45.240Z,0.30
2022-09-27T06:18:16.029Z,0.70
2022-09-27T06:20:42.946Z,0.50
2022-09-27T06:23:21.117Z,0.50
2022-09-27T06:25:47.678Z,0.43
2022-09-27T06:28:14.370Z,0.40
2022-09-27T06:30:43.345Z,0.57
2022-09-27T06:33:12.944Z,0.40
2022-09-27T06:35:40.064Z,0.75
2022-09-27T06:38:10.757Z,0.40
2022-09-27T06:40:37.301Z,0.40
2022-09-27T06:43:04.682Z,0.60
2022-09-27T06:45:33.166Z,0.50
2022-09-27T06:48:02.288Z,0.28
2022-09-27T06:50:29.988Z,0.35
2022-09-27T06:52:56.514Z,0.30
2022-09-27T06:55:22.875Z,0.32
2022-09-27T06:58:08.073Z,0.20
2022-09-27T07:00:34.516Z,0.17
2022-09-27T07:03:01.068Z,0.20
2022-09-27T07:05:31.387Z,0.38
2022-09-27T07:07:58.604Z,0.40
2022-09-27T07:10:26.495Z,0.30
2022-09-27T07:12:53.008Z,0.25
2022-09-27T07:15:21.393Z,0.20
2022-09-27T07:17:58.313Z,0.10
2022-09-27T07:20:29.509Z,0.28
2022-09-27T07:25:23.040Z,0.20
2022-09-27T07:27:49.596Z,0.40
2022-09-27T07:30:16.932Z,0.40
2022-09-27T07:32:43.598Z,0.20
2022-09-27T07:35:11.888Z,0.20
2022-09-27T07:37:38.481Z,0.28
2022-09-27T07:40:08.622Z,0.17
2022-09-27T07:42:41.080Z,0.10
2022-09-27T07:45:09.492Z,0.13
2022-09-27T07:47:37.684Z,0.57
2022-09-27T07:50:05.717Z,0.32
2022-09-27T07:52:42.392Z,0.50
2022-09-27T07:55:10.737Z,0.50
2022-09-27T07:57:38.325Z,0.20
2022-09-27T08:00:08.250Z,0.55
2022-09-27T08:02:34.765Z,0.40
2022-09-27T08:05:01.444Z,0.40
2022-09-27T08:07:29.306Z,0.40
2022-09-27T08:09:56.183Z,0.45
2022-09-27T08:12:22.605Z,0.50
2022-09-27T08:14:49.590Z,0.40
2022-09-27T08:17:17.328Z,0.40
2022-09-27T08:19:45.168Z,0.32
2022-09-27T08:22:16.118Z,0.32
2022-09-27T08:24:42.895Z,0.47
2022-09-27T08:27:11.789Z,0.57
2022-09-27T08:29:41.654Z,0.28
2022-09-27T08:32:09.339Z,0.80
2022-09-27T08:34:35.813Z,0.20
2022-09-27T08:37:02.662Z,0.40
2022-09-27T08:39:29.019Z,0.47
2022-09-27T08:42:06.019Z,0.22
2022-09-27T08:45:10.995Z,0.50
2022-09-27T08:48:02.224Z,0.30
2022-09-27T08:50:42.824Z,0.50
2022-09-27T08:53:22.409Z,0.55
2022-09-27T08:55:55.374Z,0.40
2022-09-27T08:58:28.010Z,0.70
2022-09-27T09:01:00.426Z,0.75
2022-09-27T09:03:34.163Z,0.68
2022-09-27T09:06:25.094Z,0.80
2022-09-27T09:09:28.731Z,0.47
2022-09-27T09:12:35.136Z,0.80
2022-09-27T09:15:32.307Z,0.90
2022-09-27T09:18:17.414Z,0.75
2022-09-27T09:21:03.388Z,0.90
2022-09-27T09:24:00.852Z,1.08
2022-09-27T09:26:59.450Z,1.02
2022-09-27T09:29:41.030Z,1.02
2022-09-27T09:32:35.047Z,0.75
2022-09-27T09:35:07.098Z,0.88
2022-09-27T09:37:44.020Z,1.20
2022-09-27T09:40:54.085Z,1.23
2022-09-27T09:43:31.050Z,1.30
2022-09-27T09:46:20.570Z,1.27
2022-09-27T09:49:07.162Z,1.38
2022-09-27T09:51:41.050Z,1.70
2022-09-27T09:54:22.644Z,1.15
2022-09-27T09:56:58.928Z,1.92
2022-09-27T09:59:35.634Z,1.65
2022-09-27T10:02:19.323Z,1.98
2022-09-27T10:04:45.871Z,2.00
2022-09-27T10:07:12.551Z,1.52
2022-09-27T10:09:40.313Z,1.67
2022-09-27T10:12:06.698Z,1.70
2022-09-27T10:14:33.526Z,1.75
2022-09-27T10:17:04.084Z,1.63
2022-09-27T10:19:32.992Z,1.40
2022-09-27T10:22:03.317Z,0.90
2022-09-27T10:24:29.848Z,1.15
2022-09-27T10:27:01.096Z,1.58
2022-09-27T10:32:05.447Z,0.75
2022-09-27T10:34:40.842Z,0.98
2022-09-27T10:37:13.249Z,1.10
2022-09-27T10:39:41.403Z,0.52
2022-09-27T10:42:20.770Z,1.02
2022-09-27T10:44:47.374Z,1.42
2022-09-27T10:47:22.681Z,1.40
2022-09-27T10:49:52.604Z,0.65
2022-09-27T10:52:22.417Z,0.95
2022-09-27T10:55:19.577Z,0.90
2022-09-27T10:57:51.398Z,0.95
2022-09-27T11:00:34.712Z,1.02
2022-09-27T11:03:14.986Z,0.98
2022-09-27T11:05:42.031Z,0.40
2022-09-27T11:08:23.854Z,0.40
2022-09-27T11:11:02.633Z,0.60
2022-09-27T11:13:32.685Z,0.73
2022-09-27T11:16:17.355Z,0.63
2022-09-27T11:18:55.799Z,0.97
2022-09-27T11:21:57.764Z,0.70
2022-09-27T11:24:52.321Z,0.50
2022-09-27T11:27:37.717Z,0.70
2022-09-27T11:30:28.668Z,0.55
2022-09-27T11:33:07.250Z,0.60
2022-09-27T11:39:04.357Z,0.40
2022-09-27T11:41:46.080Z,0.25
2022-09-27T11:44:27.549Z,0.22
2022-09-27T11:47:19.841Z,0.30
2022-09-27T11:50:20.489Z,0.43
2022-09-27T11:52:56.807Z,0.55
2022-09-27T11:56:02.783Z,0.68
2022-09-27T11:58:35.499Z,0.30
2022-09-27T12:01:01.810Z,0.10
2022-09-27T12:03:42.355Z,0.28
2022-09-27T12:06:27.463Z,0.13
2022-09-27T12:09:09.799Z,0.20
2022-09-27T12:11:51.204Z,0.25
2022-09-27T12:14:40.592Z,0.10
2022-09-27T12:17:21.751Z,0.30
2022-09-27T12:19:56.460Z,0.30
2022-09-27T12:23:05.801Z,0.40
2022-09-27T12:25:37.456Z,0.17
2022-09-27T12:28:33.219Z,0.10
2022-09-27T12:31:28.032Z,0.20
2022-09-27T12:34:05.833Z,0.70
2022-09-27T12:36:38.409Z,0.52
2022-09-27T12:39:19.772Z,0.30
2022-09-27T12:41:56.370Z,0.30
2022-09-27T12:44:22.744Z,0.30
2022-09-27T12:46:58.109Z,0.25
2022-09-27T12:50:01.631Z,0.10
2022-09-27T12:52:34.063Z,0.10
2022-09-27T12:55:38.811Z,0.20
2022-09-27T12:58:10.949Z,0.20
2022-09-27T13:00:48.157Z,0.20
2022-09-27T13:03:34.176Z,0.40
2022-09-27T13:06:19.413Z,0.40
2022-09-27T13:08:54.812Z,0.32
2022-09-27T13:12:04.556Z,0.10
2022-09-27T13:14:52.153Z,0.00
2022-09-27T13:17:40.862Z,0.20
2022-09-27T13:20:32.055Z,0.20
2022-09-27T13:22:59.921Z,0.32
2022-09-27T13:25:56.553Z,0.32
2022-09-27T13:28:29.017Z,0.20
2022-09-27T13:30:56.959Z,0.63
2022-09-27T13:33:49.669Z,0.10
2022-09-27T13:36:15.989Z,0.10
2022-09-27T13:39:01.892Z,0.10
2022-09-27T13:41:33.714Z,0.32
2022-09-27T13:44:05.025Z,0.13
2022-09-27T13:46:34.612Z,0.10
2022-09-27T13:49:18.155Z,0.22
2022-09-27T13:51:51.013Z,0.05
2022-09-27T13:54:39.705Z,0.10
2022-09-27T13:57:34.946Z,0.15
2022-09-27T14:00:05.356Z,0.43
2022-09-27T14:02:38.613Z,0.20
2022-09-27T14:05:12.894Z,0.20
2022-09-27T14:07:43.995Z,0.20
2022-09-27T14:10:22.297Z,0.28
2022-09-27T14:12:51.897Z,0.30
2022-09-27T14:15:23.950Z,0.20
2022-09-27T14:17:50.994Z,0.30
2022-09-27T14:20:40.699Z,0.35
2022-09-27T14:23:17.874Z,0.30
2022-09-27T14:25:47.078Z,0.20
2022-09-27T14:28:28.115Z,0.30
2022-09-27T14:31:17.618Z,0.40
2022-09-27T14:33:45.456Z,0.30
2022-09-27T14:36:45.133Z,0.28
2022-09-27T14:39:37.612Z,0.20
2022-09-27T14:42:26.497Z,0.90
2022-09-27T14:44:54.858Z,0.52
2022-09-27T14:47:27.612Z,0.70
2022-09-27T14:49:57.155Z,0.40
2022-09-27T14:52:33.034Z,0.60
2022-09-27T14:55:08.616Z,0.30
2022-09-27T14:57:37.147Z,0.20
2022-09-27T15:00:21.297Z,0.20
2022-09-27T15:02:53.252Z,0.20
2022-09-27T15:05:23.312Z,0.10
2022-09-27T15:07:52.037Z,0.20
2022-09-27T15:10:23.883Z,0.28
2022-09-27T15:13:00.169Z,0.30
2022-09-27T15:15:34.234Z,0.20
2022-09-27T15:18:01.900Z,0.10
2022-09-27T15:20:34.942Z,0.40
2022-09-27T15:23:06.302Z,0.30
2022-09-27T15:25:44.309Z,0.20
2022-09-27T15:28:10.574Z,0.20
2022-09-27T15:30:42.642Z,0.30
2022-09-27T15:33:21.281Z,0.20
2022-09-27T15:35:56.857Z,0.20
2022-09-27T15:38:27.895Z,0.20
2022-09-27T15:40:54.301Z,0.10
2022-09-27T15:43:42.109Z,0.30
2022-09-27T15:46:27.181Z,0.20
2022-09-27T15:49:22.522Z,0.30
2022-09-27T15:51:51.798Z,0.20
2022-09-27T15:54:35.599Z,0.30
2022-09-27T15:57:05.385Z,0.20
2022-09-27T15:59:36.113Z,0.30
2022-09-27T16:02:10.155Z,0.22
2022-09-27T16:04:36.533Z,0.40
2022-09-27T16:07:04.911Z,0.60
2022-09-27T16:09:31.289Z,0.40
2022-09-27T16:11:57.677Z,0.77
2022-09-27T16:14:24.050Z,0.60
2022-09-27T16:16:58.670Z,0.57
2022-09-27T16:19:25.050Z,0.52
2022-09-27T16:21:51.383Z,0.73
2022-09-27T16:24:17.710Z,0.80
2022-09-27T16:26:44.076Z,1.42
2022-09-27T16:29:12.764Z,0.80
2022-09-27T16:31:40.306Z,0.70
2022-09-27T16:34:12.095Z,0.73
2022-09-27T16:36:39.297Z,0.95
2022-09-27T16:39:12.949Z,0.60
2022-09-27T16:41:43.467Z,0.65
2022-09-27T16:44:12.283Z,0.50
2022-09-27T16:46:43.399Z,0.50
2022-09-27T16:49:29.892Z,0.40
2022-09-27T16:52:02.199Z,0.45
2022-09-27T16:54:29.634Z,0.68
2022-09-27T16:56:57.921Z,0.80
2022-09-27T16:59:25.042Z,0.88
2022-09-27T17:01:51.985Z,0.80
2022-09-27T17:04:18.357Z,1.40
2022-09-27T17:06:44.721Z,1.02
2022-09-27T17:09:11.939Z,1.00
2022-09-27T17:11:38.258Z,1.63
2022-09-27T17:14:04.636Z,1.30
2022-09-27T17:16:31.031Z,1.02
2022-09-27T17:18:57.431Z,1.27
2022-09-27T17:21:23.853Z,1.25
2022-09-27T17:23:50.901Z,1.08
2022-09-27T17:26:22.199Z,1.10
2022-09-27T17:28:49.903Z,1.15
2022-09-27T17:31:18.526Z,1.20
2022-09-27T17:33:47.549Z,1.20
2022-09-27T17:36:25.377Z,1.10
2022-09-27T17:38:52.465Z,1.52
2022-09-27T17:41:24.554Z,0.90
2022-09-27T17:43:59.564Z,0.70
2022-09-27T17:46:28.838Z,0.85
2022-09-27T17:49:13.879Z,0.90
2022-09-27T17:51:41.767Z,1.02
2022-09-27T17:54:10.251Z,0.63
2022-09-27T17:56:41.560Z,0.70
2022-09-27T17:59:09.906Z,0.60
2022-09-27T18:01:38.694Z,0.90
2022-09-27T18:04:09.676Z,1.02
2022-09-27T18:06:44.832Z,0.40
2022-09-27T18:09:13.524Z,0.50
2022-09-27T18:11:40.670Z,0.75
2022-09-27T18:14:07.332Z,0.55
2022-09-27T18:16:39.139Z,0.63
2022-09-27T18:19:07.850Z,0.70
2022-09-27T18:21:34.740Z,0.60
2022-09-27T18:24:04.262Z,0.82
2022-09-27T18:26:30.688Z,0.98
2022-09-27T18:29:02.920Z,0.90
2022-09-27T18:31:29.414Z,1.08
2022-09-27T18:33:55.828Z,1.20
2022-09-27T18:36:26.647Z,1.10
2022-09-27T18:38:57.983Z,0.90
2022-09-27T18:41:26.615Z,1.08
2022-09-27T18:43:58.749Z,1.10
2022-09-27T18:46:36.258Z,1.05
2022-09-27T18:49:05.058Z,1.00
2022-09-27T18:51:31.990Z,1.10
2022-09-27T18:54:14.061Z,1.00
2022-09-27T18:56:41.029Z,1.45
2022-09-27T18:59:08.829Z,1.15
2022-09-27T19:01:39.398Z,1.17
2022-09-27T19:04:07.552Z,1.00
2022-09-27T19:06:34.029Z,1.10
2022-09-27T19:09:00.461Z,0.88
2022-09-27T19:11:27.838Z,0.75
2022-09-27T19:13:56.354Z,1.10
2022-09-27T19:16:24.575Z,0.90
2022-09-27T19:18:51.456Z,1.25
2022-09-27T19:21:20.933Z,1.13
2022-09-27T19:23:48.735Z,1.35
2022-09-27T19:26:17.678Z,0.93
2022-09-27T19:28:45.132Z,1.00
2022-09-27T19:31:16.766Z,0.80
2022-09-27T19:33:43.832Z,1.10
2022-09-27T19:36:12.575Z,1.33
2022-09-27T19:38:39.284Z,1.60
2022-09-27T19:41:07.763Z,1.30
2022-09-27T19:43:34.478Z,1.60
2022-09-27T19:46:15.159Z,1.80
2022-09-27T19:48:43.005Z,1.88
2022-09-27T19:51:14.102Z,1.90
2022-09-27T19:53:40.488Z,2.13
2022-09-27T19:56:09.548Z,2.15
2022-09-27T19:58:37.696Z,2.60
2022-09-27T20:01:14.870Z,2.25
2022-09-27T20:03:43.837Z,2.25
2022-09-27T20:06:15.347Z,2.35
2022-09-27T20:08:43.424Z,2.30
2022-09-27T20:11:13.220Z,2.63
2022-09-27T20:13:40.543Z,3.10
2022-09-27T20:16:16.838Z,2.10
2022-09-27T20:18:45.547Z,2.20
2022-09-27T20:21:12.567Z,2.00
2022-09-27T20:23:39.264Z,2.10
2022-09-27T20:26:13.956Z,1.80
2022-09-27T20:28:42.081Z,1.90
2022-09-27T20:31:09.750Z,1.77
2022-09-27T20:33:42.251Z,2.20
2022-09-27T20:36:20.229Z,2.10
2022-09-27T20:38:48.883Z,1.85
2022-09-27T20:41:18.024Z,1.60
2022-09-27T20:43:45.472Z,1.40
2022-09-27T20:46:14.844Z,1.50
2022-09-27T20:48:43.019Z,1.67
2022-09-27T20:51:14.107Z,1.60
2022-09-27T20:53:41.656Z,1.40
2022-09-27T20:56:33.102Z,1.40
2022-09-27T21:01:29.058Z,1.70
2022-09-27T21:04:00.756Z,1.40
2022-09-27T21:06:27.779Z,1.40
2022-09-27T21:08:54.780Z,1.50
2022-09-27T21:11:22.559Z,1.60
2022-09-27T21:13:50.427Z,1.67
2022-09-27T21:16:19.480Z,1.85
2022-09-27T21:18:49.514Z,1.45
2022-09-27T21:21:15.892Z,1.80
2022-09-27T21:23:44.876Z,1.63
2022-09-27T21:26:12.996Z,1.70
2022-09-27T21:28:41.738Z,1.65
2022-09-27T21:31:13.402Z,1.52
2022-09-27T21:33:41.102Z,1.80
2022-09-27T21:36:09.955Z,1.63
2022-09-27T21:38:36.526Z,1.63
2022-09-27T21:41:09.496Z,1.67
2022-09-27T21:43:39.659Z,2.10
2022-09-27T21:46:10.538Z,2.03
2022-09-27T21:48:39.119Z,2.03
2022-09-27T21:51:11.024Z,2.10
2022-09-27T21:53:39.569Z,2.20
2022-09-27T21:56:06.769Z,2.22
2022-09-27T21:58:35.387Z,2.35
2022-09-27T22:01:12.026Z,2.20
2022-09-27T22:03:39.689Z,2.20
2022-09-27T22:06:10.523Z,2.33
2022-09-27T22:08:37.748Z,2.40
2022-09-27T22:11:04.681Z,2.42
2022-09-27T22:13:31.706Z,2.80
2022-09-27T22:16:03.689Z,2.40
2022-09-27T22:18:30.098Z,2.47
2022-09-27T22:21:07.628Z,2.35
2022-09-27T22:23:34.937Z,2.47
2022-09-27T22:26:12.197Z,2.35
2022-09-27T22:28:38.753Z,2.30
2022-09-27T22:31:05.273Z,2.80
2022-09-27T22:33:31.698Z,2.35
2022-09-27T22:35:58.012Z,2.50
2022-09-27T22:38:24.401Z,2.60
2022-09-27T22:40:56.192Z,2.67
2022-09-27T22:43:23.752Z,2.05
2022-09-27T22:45:50.471Z,2.55
2022-09-27T22:48:16.931Z,2.65
2022-09-27T22:50:43.292Z,2.95
2022-09-27T22:53:09.596Z,2.50
2022-09-27T22:55:35.892Z,2.50
2022-09-27T22:58:02.296Z,2.40
2022-09-27T23:00:29.401Z,2.08
2022-09-27T23:02:57.354Z,2.20
2022-09-27T23:05:24.301Z,2.10
2022-09-27T23:07:52.384Z,1.90
2022-09-27T23:10:20.525Z,2.30
2022-09-27T23:12:47.034Z,1.83
2022-09-27T23:15:18.243Z,2.00
2022-09-27T23:20:13.423Z,2.03
2022-09-27T23:22:39.743Z,2.20
2022-09-27T23:25:06.699Z,2.38
2022-09-27T23:27:42.143Z,2.58
2022-09-27T23:30:09.751Z,2.40
2022-09-27T23:32:36.111Z,2.72
2022-09-27T23:35:03.084Z,2.28
2022-09-27T23:37:29.579Z,2.80
2022-09-27T23:39:55.892Z,2.60
2022-09-27T23:42:22.650Z,3.33
2022-09-27T23:44:49.081Z,2.55
2022-09-27T23:47:15.436Z,2.78
2022-09-27T23:49:42.148Z,2.80
2022-09-27T23:52:08.481Z,2.65
2022-09-27T23:54:34.841Z,3.13
2022-09-27T23:57:02.333Z,2.90
2022-09-27T23:59:28.696Z,3.25
